Terminal Aerodrome Forecast
Issued by NWS Grand Rapids, MI

Home | Current Version | Previous Version | Text Only | Print | Product List | Glossary On
Versions: 1 2 3 4 5 6 7 8 9 10 11 12 13 14 15 16 17 18 19 20 21 22 23 24 25 26 27
678
FTUS43 KGRR 012243 AAC
TAFGRR
TAF AMD
KGRR 012243Z 0123/0218 05010KT 5SM TSRA BR SCT015 BKN025CB
      TEMPO 0123/0201 1 1/2SM +TSRA
     FM020100 05005KT P6SM BKN060
     FM020700 00000KT 2SM BR BKN035
     FM021000 27002KT 1/2SM FG OVC003
     FM021400 29003KT 1 1/2SM BR OVC015
     FM021600 31005KT 4SM HZ BR OVC015=

USA.gov is the U.S. government's official web portal to all federal, state and local government web resources and services.